Time;durP1;ratioP1;P1;durP2;ratioP2;P2;SDS_P1;SDS_P2;PMS_P1;PMS_P2;Temp;Humidity;BMP_temperature;BMP_pressure;BME280_temperature;BME280_humidity;BME280_pressure;Samples;Min_cycle;Max_cycle;Signal;HPM_P1;HPM_P2
2023/07/13 00:01:17;;;;;;;3.83;1.45;;;20.00;92.70;;;;;;5066949;28;20253;-30
2023/07/13 00:03:46;;;;;;;3.92;1.30;;;20.00;92.70;;;;;;5067441;28;20214;-29
2023/07/13 00:06:13;;;;;;;3.70;1.40;;;19.90;92.70;;;;;;5067536;28;20578;-29
2023/07/13 00:08:41;;;;;;;3.17;1.30;;;19.90;92.60;;;;;;5067228;28;20553;-30
2023/07/13 00:11:10;;;;;;;3.80;1.48;;;19.90;92.70;;;;;;5067447;28;20207;-29
2023/07/13 00:13:39;;;;;;;5.68;1.50;;;19.80;92.80;;;;;;5066222;28;20204;-30
2023/07/13 00:16:07;;;;;;;3.38;1.30;;;19.80;92.70;;;;;;5066662;28;20544;-29
2023/07/13 00:18:35;;;;;;;3.35;1.38;;;19.80;92.80;;;;;;5066642;28;20240;-30
2023/07/13 00:21:04;;;;;;;5.78;1.58;;;19.80;92.80;;;;;;5064972;28;20192;-30
2023/07/13 00:23:37;;;;;;;4.55;1.70;;;19.80;92.80;;;;;;5057071;28;20291;-30
2023/07/13 00:26:09;;;;;;;4.30;1.50;;;19.70;92.80;;;;;;5045515;28;20739;-30
2023/07/13 00:28:37;;;;;;;3.63;1.30;;;19.70;92.80;;;;;;5047218;28;20232;-30
2023/07/13 00:31:04;;;;;;;5.32;1.95;;;19.70;92.90;;;;;;5029174;28;20208;-30
2023/07/13 00:33:37;;;;;;;4.00;1.50;;;19.60;92.90;;;;;;5046717;28;20510;-29
2023/07/13 00:36:04;;;;;;;5.32;1.75;;;19.60;92.90;;;;;;5046840;28;20224;-29
2023/07/13 00:38:32;;;;;;;5.32;1.38;;;19.60;92.90;;;;;;5045732;28;20240;-29
2023/07/13 00:41:06;;;;;;;3.33;1.27;;;19.60;92.90;;;;;;5045531;28;20204;-29
2023/07/13 00:43:35;;;;;;;5.18;1.58;;;19.60;93.10;;;;;;5045578;28;20753;-30
2023/07/13 00:46:14;;;;;;;4.78;1.52;;;19.60;93.10;;;;;;5046608;28;20273;-29
2023/07/13 00:48:44;;;;;;;3.30;1.42;;;19.60;93.10;;;;;;5044423;28;20290;-30
2023/07/13 00:51:13;;;;;;;6.55;1.45;;;19.50;93.10;;;;;;5045538;28;20211;-29
2023/07/13 00:53:40;;;;;;;6.82;1.45;;;19.50;93.10;;;;;;5045089;28;20212;-29
2023/07/13 00:56:08;;;;;;;6.15;1.75;;;19.50;93.10;;;;;;5045178;28;20212;-29
2023/07/13 00:58:41;;;;;;;6.03;1.50;;;19.50;93.20;;;;;;5031768;28;20317;-29
2023/07/13 01:01:08;;;;;;;4.25;1.30;;;19.50;93.20;;;;;;5025405;28;20255;-29
2023/07/13 01:03:35;;;;;;;3.63;1.35;;;19.50;93.20;;;;;;5031455;28;20221;-29
2023/07/13 01:06:05;;;;;;;3.72;1.50;;;19.50;93.20;;;;;;5038491;28;20196;-30
2023/07/13 01:08:33;;;;;;;4.88;1.70;;;19.50;93.30;;;;;;5032021;28;20196;-30
2023/07/13 01:11:00;;;;;;;3.95;1.55;;;19.50;93.30;;;;;;5032505;28;20282;-29
2023/07/13 01:13:29;;;;;;;4.70;1.52;;;19.50;93.30;;;;;;5025874;28;20200;-29
2023/07/13 01:16:01;;;;;;;7.28;1.80;;;19.40;93.30;;;;;;5025716;28;20203;-30
2023/07/13 01:18:29;;;;;;;5.00;1.88;;;19.40;93.40;;;;;;5037792;28;20213;-30
2023/07/13 01:21:00;;;;;;;5.03;1.58;;;19.40;93.30;;;;;;5025448;28;20270;-29
2023/07/13 01:23:30;;;;;;;5.50;1.83;;;19.40;93.40;;;;;;5038517;28;20536;-30
2023/07/13 01:25:58;;;;;;;5.60;1.77;;;19.40;93.50;;;;;;5026564;28;20262;-29
2023/07/13 01:28:29;;;;;;;4.00;1.40;;;19.40;93.50;;;;;;5034636;28;20613;-29
2023/07/13 01:30:58;;;;;;;6.50;1.70;;;19.30;93.50;;;;;;5049501;28;20235;-29
2023/07/13 01:33:28;;;;;;;3.60;1.27;;;19.30;93.50;;;;;;5047747;28;20210;-29
2023/07/13 01:35:58;;;;;;;4.82;1.88;;;19.30;93.50;;;;;;5049429;28;20208;-30
2023/07/13 01:38:27;;;;;;;6.93;1.75;;;19.30;93.50;;;;;;5051014;28;20240;-29
2023/07/13 01:40:57;;;;;;;5.45;1.98;;;19.20;93.70;;;;;;5050064;28;20281;-29
2023/07/13 01:43:24;;;;;;;4.32;1.52;;;19.20;93.50;;;;;;5049570;28;20341;-29
2023/07/13 01:45:51;;;;;;;4.32;1.75;;;19.20;93.60;;;;;;5049119;28;20239;-29
2023/07/13 01:48:19;;;;;;;3.75;1.35;;;19.10;93.50;;;;;;5049887;28;20207;-29
2023/07/13 01:50:49;;;;;;;3.58;1.50;;;19.10;93.50;;;;;;5049358;28;20196;-29
2023/07/13 01:53:17;;;;;;;7.50;1.80;;;19.10;93.70;;;;;;5048787;28;20216;-29
2023/07/13 01:55:46;;;;;;;6.03;1.83;;;19.10;93.70;;;;;;5050080;28;20614;-30
2023/07/13 01:58:15;;;;;;;5.45;1.52;;;19.00;93.70;;;;;;5035352;28;20262;-30
2023/07/13 02:00:49;;;;;;;6.07;1.63;;;19.00;93.80;;;;;;5030002;28;20255;-29
2023/07/13 02:03:17;;;;;;;5.38;1.60;;;19.00;93.80;;;;;;5029877;28;20576;-30
2023/07/13 02:05:47;;;;;;;5.78;2.03;;;19.00;93.70;;;;;;5027551;28;20203;-30
2023/07/13 02:08:18;;;;;;;3.97;1.80;;;19.00;93.80;;;;;;5028156;28;20290;-29
2023/07/13 02:10:47;;;;;;;4.13;1.60;;;18.90;93.90;;;;;;5028392;28;20718;-29
2023/07/13 02:13:14;;;;;;;4.60;1.70;;;18.90;93.80;;;;;;5043061;28;20277;-30
2023/07/13 02:15:42;;;;;;;6.53;1.90;;;18.90;93.80;;;;;;5048192;28;20678;-29
2023/07/13 02:18:12;;;;;;;6.20;2.10;;;18.90;93.90;;;;;;5048438;28;20219;-30
2023/07/13 02:20:46;;;;;;;4.85;1.63;;;18.90;94.00;;;;;;5048757;28;20220;-30
2023/07/13 02:23:16;;;;;;;6.13;1.70;;;18.80;94.30;;;;;;5049515;28;20243;-29
2023/07/13 02:25:45;;;;;;;3.63;1.67;;;18.80;94.00;;;;;;5048166;28;20203;-29
2023/07/13 02:28:12;;;;;;;5.80;1.83;;;18.80;94.20;;;;;;5052240;28;20211;-30
2023/07/13 02:30:42;;;;;;;5.05;1.73;;;18.80;94.00;;;;;;5069150;28;20207;-30
2023/07/13 02:33:15;;;;;;;7.00;2.03;;;18.80;94.10;;;;;;5069289;28;20199;-30
2023/07/13 02:35:42;;;;;;;6.53;1.65;;;18.70;94.00;;;;;;5068357;28;20207;-29
2023/07/13 02:38:09;;;;;;;5.35;1.60;;;18.70;94.10;;;;;;5069037;28;20231;-30
2023/07/13 02:40:39;;;;;;;5.95;1.77;;;18.70;94.10;;;;;;5068763;28;20216;-30
2023/07/13 02:43:09;;;;;;;8.15;1.88;;;18.70;94.20;;;;;;5068910;28;20219;-30
2023/07/13 02:45:37;;;;;;;7.93;2.15;;;18.60;94.10;;;;;;5069393;28;20281;-30
2023/07/13 02:48:04;;;;;;;6.35;2.30;;;18.60;94.10;;;;;;5068949;28;20642;-29
2023/07/13 02:50:34;;;;;;;9.02;2.30;;;18.60;94.20;;;;;;5067084;28;20204;-30
2023/07/13 02:53:03;;;;;;;4.35;1.65;;;18.60;94.30;;;;;;5067801;28;20215;-30
2023/07/13 02:55:31;;;;;;;6.70;2.45;;;18.60;94.30;;;;;;5067108;28;20216;-30
2023/07/13 02:57:58;;;;;;;4.88;1.65;;;18.60;94.40;;;;;;5067188;28;20276;-30
2023/07/13 03:00:25;;;;;;;4.80;1.80;;;18.60;94.30;;;;;;5066906;28;20231;-30
2023/07/13 03:02:53;;;;;;;6.80;1.92;;;18.60;94.40;;;;;;5068906;28;20207;-30
2023/07/13 03:05:25;;;;;;;6.25;1.90;;;18.50;94.30;;;;;;5067602;28;20677;-30
2023/07/13 03:07:54;;;;;;;5.47;1.90;;;18.50;94.30;;;;;;5047212;28;20207;-30
2023/07/13 03:10:25;;;;;;;6.05;2.13;;;18.50;94.40;;;;;;5048343;28;20196;-30
2023/07/13 03:12:54;;;;;;;4.60;2.03;;;18.50;94.40;;;;;;5031251;28;20278;-30
2023/07/13 03:15:21;;;;;;;4.70;1.70;;;18.50;94.50;;;;;;5027100;28;20292;-30
2023/07/13 03:17:49;;;;;;;6.68;2.28;;;18.50;94.50;;;;;;5027258;28;20757;-30
2023/07/13 03:20:16;;;;;;;6.57;2.22;;;18.50;94.50;;;;;;5027673;28;20224;-30
2023/07/13 03:22:44;;;;;;;6.65;2.10;;;18.60;94.60;;;;;;5028666;28;20682;-30
2023/07/13 03:25:11;;;;;;;7.10;2.10;;;18.50;94.60;;;;;;5028710;28;20217;-30
2023/07/13 03:27:38;;;;;;;7.05;2.00;;;18.60;94.80;;;;;;5027339;28;20726;-30
2023/07/13 03:30:08;;;;;;;5.93;2.03;;;18.60;94.80;;;;;;5064820;28;20741;-29
2023/07/13 03:32:38;;;;;;;10.48;2.40;;;18.60;94.80;;;;;;5068485;28;21080;-29
2023/07/13 03:35:05;;;;;;;5.30;2.00;;;18.60;94.80;;;;;;5066861;28;20203;-29
2023/07/13 03:37:33;;;;;;;6.65;2.08;;;18.60;94.80;;;;;;5068552;28;20696;-29
2023/07/13 03:40:00;;;;;;;4.55;1.80;;;18.70;94.80;;;;;;5067713;28;20231;-30
2023/07/13 03:42:29;;;;;;;5.78;2.08;;;18.70;94.80;;;;;;5068048;28;20196;-30
2023/07/13 03:44:56;;;;;;;5.07;2.00;;;18.70;94.90;;;;;;5066103;28;20195;-30
2023/07/13 03:47:26;;;;;;;9.27;2.08;;;18.70;94.90;;;;;;5066471;28;20242;-30
2023/07/13 03:49:56;;;;;;;4.93;1.80;;;18.70;95.00;;;;;;5065357;28;20330;-30
2023/07/13 03:52:25;;;;;;;8.20;2.25;;;18.70;95.00;;;;;;5065688;28;20208;-29
2023/07/13 03:54:55;;;;;;;6.35;2.00;;;18.70;95.00;;;;;;5067375;28;20234;-30
2023/07/13 03:57:22;;;;;;;4.93;1.98;;;18.70;95.10;;;;;;5067903;28;20199;-30
2023/07/13 03:59:52;;;;;;;5.60;2.25;;;18.70;95.10;;;;;;5067839;28;20690;-30
2023/07/13 04:02:22;;;;;;;5.63;2.20;;;18.70;95.20;;;;;;5067805;28;20211;-30
2023/07/13 04:04:49;;;;;;;9.48;2.50;;;18.60;95.20;;;;;;5066510;28;20226;-30
2023/07/13 04:07:18;;;;;;;4.90;2.00;;;18.60;95.20;;;;;;5048078;28;20431;-30
2023/07/13 04:09:48;;;;;;;6.78;2.13;;;18.60;95.20;;;;;;5047619;28;21083;-30
2023/07/13 04:12:20;;;;;;;4.50;1.65;;;18.60;95.30;;;;;;5046175;28;20684;-30
2023/07/13 04:14:48;;;;;;;7.10;2.15;;;18.60;95.30;;;;;;5045656;28;20215;-30
2023/07/13 04:17:17;;;;;;;8.68;1.90;;;18.60;95.10;;;;;;5047400;28;20208;-30
2023/07/13 04:19:45;;;;;;;5.15;2.20;;;18.60;95.20;;;;;;5046265;28;20782;-30
2023/07/13 04:22:12;;;;;;;9.82;2.25;;;18.60;95.40;;;;;;5047210;28;20219;-30
2023/07/13 04:24:40;;;;;;;6.72;2.03;;;18.60;95.40;;;;;;5045554;28;20585;-30
2023/07/13 04:27:07;;;;;;;5.95;2.17;;;18.60;95.40;;;;;;5045595;28;20204;-30
2023/07/13 04:29:37;;;;;;;5.40;1.98;;;18.60;95.40;;;;;;5059599;28;20239;-30
2023/07/13 04:32:07;;;;;;;5.50;2.08;;;18.60;95.50;;;;;;5067601;28;20203;-30
2023/07/13 04:34:41;;;;;;;6.18;1.95;;;18.60;95.50;;;;;;5066451;28;20579;-30
2023/07/13 04:37:08;;;;;;;11.75;2.35;;;18.60;95.60;;;;;;5066847;28;20207;-30
2023/07/13 04:39:37;;;;;;;7.07;1.90;;;18.70;95.60;;;;;;5055622;28;20587;-30
2023/07/13 04:42:07;;;;;;;5.40;2.08;;;18.70;95.60;;;;;;5030605;28;20713;-30
2023/07/13 04:44:34;;;;;;;6.00;2.00;;;18.70;95.70;;;;;;5027889;28;20208;-30
2023/07/13 04:47:04;;;;;;;8.60;2.17;;;18.70;95.70;;;;;;5027333;28;20208;-29
2023/07/13 04:49:31;;;;;;;6.75;2.00;;;18.70;95.80;;;;;;5032790;28;20596;-25
2023/07/13 04:52:00;;;;;;;6.60;1.90;;;18.70;95.80;;;;;;5046688;28;20681;-25
2023/07/13 04:54:33;;;;;;;6.07;2.08;;;18.80;95.90;;;;;;5037746;28;20300;-25
2023/07/13 04:57:02;;;;;;;8.18;3.00;;;18.80;95.90;;;;;;5025990;28;20227;-25
2023/07/13 04:59:35;;;;;;;7.93;2.55;;;18.80;95.80;;;;;;5043019;28;20231;-25
2023/07/13 05:02:05;;;;;;;9.63;2.00;;;18.80;95.90;;;;;;5042503;28;20584;-25
2023/07/13 05:04:37;;;;;;;7.05;2.47;;;18.80;95.90;;;;;;5031649;28;20205;-25
2023/07/13 05:07:09;;;;;;;4.68;2.00;;;18.90;96.00;;;;;;5028771;28;20211;-25
2023/07/13 05:09:39;;;;;;;7.30;2.45;;;18.90;96.00;;;;;;5030281;28;20283;-25
2023/07/13 05:12:11;;;;;;;8.40;2.25;;;18.90;96.10;;;;;;5033611;28;20188;-25
2023/07/13 05:14:38;;;;;;;7.22;2.22;;;19.00;96.10;;;;;;5031756;28;20216;-25
2023/07/13 05:17:07;;;;;;;7.32;2.60;;;19.00;96.10;;;;;;5046118;28;20189;-25
2023/07/13 05:19:37;;;;;;;6.82;2.50;;;19.10;96.30;;;;;;5030861;28;20211;-26
2023/07/13 05:22:05;;;;;;;9.30;2.55;;;19.10;96.20;;;;;;5027435;28;20213;-26
2023/07/13 05:24:32;;;;;;;8.25;2.35;;;19.10;96.30;;;;;;5029144;28;20201;-26
2023/07/13 05:27:02;;;;;;;7.40;2.50;;;19.10;96.40;;;;;;5026755;28;20254;-26
2023/07/13 05:29:29;;;;;;;7.82;2.30;;;19.20;96.50;;;;;;5030706;28;20207;-26
2023/07/13 05:32:03;;;;;;;7.65;2.20;;;19.30;96.40;;;;;;5030817;28;20200;-26
2023/07/13 05:34:31;;;;;;;9.18;2.83;;;19.30;96.60;;;;;;5030426;28;20258;-24
2023/07/13 05:37:01;;;;;;;9.52;2.67;;;19.40;96.60;;;;;;5025968;28;20209;-26
2023/07/13 05:39:29;;;;;;;6.85;2.55;;;19.40;96.50;;;;;;5044388;28;20244;-26
2023/07/13 05:42:01;;;;;;;9.32;2.63;;;19.40;96.60;;;;;;5043955;28;20232;-26
2023/07/13 05:44:28;;;;;;;9.13;2.38;;;19.40;96.60;;;;;;5033868;28;20196;-26
2023/07/13 05:46:56;;;;;;;8.10;2.50;;;19.50;96.60;;;;;;5033038;28;20211;-26
2023/07/13 05:49:23;;;;;;;9.80;3.22;;;19.50;96.80;;;;;;5033859;28;20203;-26
2023/07/13 05:51:53;;;;;;;5.90;2.58;;;19.60;96.80;;;;;;5032325;28;20208;-28
2023/07/13 05:54:20;;;;;;;10.68;2.60;;;19.60;96.80;;;;;;5028824;28;20626;-30
2023/07/13 05:56:48;;;;;;;6.55;2.65;;;19.70;96.90;;;;;;5026213;28;20208;-30
2023/07/13 05:59:15;;;;;;;8.25;2.70;;;19.70;96.80;;;;;;5032473;28;20254;-30
2023/07/13 06:01:42;;;;;;;9.32;2.50;;;19.70;96.90;;;;;;5037995;28;20327;-30
2023/07/13 06:04:12;;;;;;;12.05;2.63;;;19.70;96.90;;;;;;5031697;28;20218;-30
2023/07/13 06:06:41;;;;;;;9.65;3.08;;;19.80;97.00;;;;;;5033586;28;20217;-26
2023/07/13 06:09:11;;;;;;;9.15;2.65;;;19.80;97.10;;;;;;5028751;28;20691;-26
2023/07/13 06:11:40;;;;;;;8.27;2.58;;;19.80;97.00;;;;;;5044078;28;20313;-26
2023/07/13 06:14:10;;;;;;;9.02;3.22;;;19.90;97.10;;;;;;5045580;28;20682;-26
2023/07/13 06:16:41;;;;;;;8.77;2.75;;;19.90;97.10;;;;;;5048633;28;20206;-26
2023/07/13 06:19:11;;;;;;;10.18;2.78;;;19.90;97.20;;;;;;5048611;28;20220;-26
2023/07/13 06:21:40;;;;;;;10.77;3.10;;;20.00;97.20;;;;;;5032429;28;20252;-26
2023/07/13 06:24:10;;;;;;;7.50;2.38;;;20.00;97.20;;;;;;5044858;28;20678;-26
2023/07/13 06:26:37;;;;;;;12.63;3.22;;;20.00;97.20;;;;;;5042847;28;20258;-26
2023/07/13 06:29:07;;;;;;;9.90;3.30;;;20.10;97.40;;;;;;5029506;28;20205;-26
2023/07/13 06:31:36;;;;;;;9.02;2.78;;;20.10;97.30;;;;;;5037467;28;20610;-26
2023/07/13 06:34:08;;;;;;;9.93;2.78;;;20.10;97.70;;;;;;5044745;28;20235;-26
2023/07/13 06:36:41;;;;;;;9.27;3.00;;;20.20;97.30;;;;;;5033852;28;20208;-26
2023/07/13 06:39:10;;;;;;;10.15;2.85;;;20.20;97.40;;;;;;5042240;28;20232;-23
2023/07/13 06:41:38;;;;;;;8.10;2.75;;;20.20;97.30;;;;;;5045071;28;20586;-26
2023/07/13 06:44:06;;;;;;;8.23;2.70;;;20.20;97.40;;;;;;5033808;28;20213;-26
2023/07/13 06:46:36;;;;;;;11.00;2.90;;;20.20;97.40;;;;;;5044456;28;20262;-25
2023/07/13 06:49:05;;;;;;;10.88;3.00;;;20.20;97.50;;;;;;5048573;28;20212;-26
2023/07/13 06:51:32;;;;;;;8.48;2.90;;;20.30;97.50;;;;;;5047265;28;20216;-26
2023/07/13 06:53:59;;;;;;;10.73;2.85;;;20.30;97.60;;;;;;5047267;28;20295;-26
2023/07/13 06:56:29;;;;;;;7.20;2.25;;;20.40;97.60;;;;;;5033290;28;20220;-26
2023/07/13 06:59:01;;;;;;;5.60;2.30;;;20.50;98.00;;;;;;5028114;28;20320;-30
2023/07/13 07:01:30;;;;;;;8.60;2.75;;;20.50;97.70;;;;;;5040026;28;20216;-32
2023/07/13 07:04:00;;;;;;;9.15;3.10;;;20.60;97.80;;;;;;5028849;28;20284;-32
2023/07/13 07:06:30;;;;;;;12.32;3.08;;;20.70;97.90;;;;;;5027831;28;20200;-32
2023/07/13 07:08:59;;;;;;;11.68;2.70;;;20.80;98.00;;;;;;5026676;28;20201;-31
2023/07/13 07:11:26;;;;;;;11.65;3.05;;;20.90;98.00;;;;;;5026709;28;20215;-31
2023/07/13 07:13:56;;;;;;;11.10;3.30;;;21.00;98.00;;;;;;5026935;28;20213;-32
2023/07/13 07:16:31;;;;;;;11.75;3.40;;;21.00;98.20;;;;;;5028984;28;20213;-31
2023/07/13 07:18:58;;;;;;;10.02;3.00;;;21.10;98.20;;;;;;5027730;28;20234;-31
2023/07/13 07:21:27;;;;;;;7.15;2.15;;;21.20;98.30;;;;;;5028306;28;20225;-31
2023/07/13 07:23:55;;;;;;;11.07;3.13;;;21.30;98.30;;;;;;5032603;28;20270;-32
2023/07/13 07:26:24;;;;;;;7.82;2.75;;;21.30;98.30;;;;;;5034918;28;20208;-32
2023/07/13 07:28:56;;;;;;;8.68;3.17;;;21.40;98.40;;;;;;5026678;28;20283;-31
2023/07/13 07:31:26;;;;;;;8.65;2.88;;;21.50;98.40;;;;;;5026933;28;20231;-31
2023/07/13 07:33:56;;;;;;;9.68;2.83;;;21.60;98.40;;;;;;5027509;28;20223;-31
2023/07/13 07:36:23;;;;;;;9.57;3.00;;;21.60;98.40;;;;;;5032775;28;20211;-31
2023/07/13 07:39:00;;;;;;;6.78;3.15;;;21.70;98.50;;;;;;5043568;28;20232;-31
2023/07/13 07:41:32;;;;;;;9.50;2.70;;;21.80;98.60;;;;;;5038293;28;20615;-26
2023/07/13 07:44:03;;;;;;;10.60;2.80;;;21.80;98.50;;;;;;5032162;28;20679;-31
2023/07/13 07:46:33;;;;;;;11.80;3.10;;;21.90;98.50;;;;;;5029272;28;20597;-31
2023/07/13 07:49:00;;;;;;;8.55;3.05;;;21.90;98.50;;;;;;5045560;28;20578;-31
2023/07/13 07:51:27;;;;;;;9.77;2.78;;;21.90;98.40;;;;;;5046081;28;20211;-31
2023/07/13 07:53:58;;;;;;;9.13;2.97;;;21.90;98.50;;;;;;5037625;28;20208;-31
2023/07/13 07:56:25;;;;;;;8.05;2.53;;;21.90;98.50;;;;;;5026529;28;20228;-31
2023/07/13 07:58:56;;;;;;;7.72;2.58;;;21.90;98.40;;;;;;5044003;28;20220;-31
2023/07/13 08:01:26;;;;;;;8.35;2.67;;;22.00;98.50;;;;;;5035895;28;20843;-31
2023/07/13 08:03:58;;;;;;;8.85;2.70;;;22.00;98.50;;;;;;5028025;28;20193;-25
2023/07/13 08:06:33;;;;;;;8.90;2.88;;;22.00;98.60;;;;;;5046199;28;20601;-31
2023/07/13 08:09:06;;;;;;;9.18;2.92;;;22.00;98.50;;;;;;5047225;28;20231;-31
2023/07/13 08:11:38;;;;;;;12.45;3.35;;;22.10;98.40;;;;;;5044120;28;20209;-31
2023/07/13 08:14:10;;;;;;;9.70;2.63;;;22.10;98.40;;;;;;5026865;28;20678;-31
2023/07/13 08:16:37;;;;;;;7.75;2.75;;;22.10;98.40;;;;;;5027278;28;20220;-31
2023/07/13 08:19:06;;;;;;;9.88;3.05;;;22.10;98.40;;;;;;5026199;28;20286;-31
2023/07/13 08:21:33;;;;;;;8.40;3.10;;;22.20;98.40;;;;;;5025418;28;20225;-32
2023/07/13 08:24:05;;;;;;;8.35;2.45;;;22.20;98.40;;;;;;5027544;28;20263;-31
2023/07/13 08:26:32;;;;;;;6.57;2.55;;;22.20;98.40;;;;;;5024859;28;20225;-31
2023/07/13 08:29:00;;;;;;;9.20;2.83;;;22.20;98.50;;;;;;5036900;28;20501;-31
2023/07/13 08:31:29;;;;;;;9.18;3.10;;;22.30;98.50;;;;;;5033307;28;20618;-31
2023/07/13 08:33:56;;;;;;;7.95;2.85;;;22.30;98.50;;;;;;5027615;28;20957;-31
2023/07/13 08:36:26;;;;;;;6.70;2.20;;;22.30;98.50;;;;;;5036265;28;20776;-31
2023/07/13 08:38:58;;;;;;;6.70;2.38;;;22.30;98.50;;;;;;5026505;28;20626;-36
2023/07/13 08:41:57;;;;;;;7.85;2.53;;;22.20;98.40;;;;;;5042262;28;21061;-25
2023/07/13 08:44:45;;;;;;;8.55;2.40;;;22.30;98.50;;;;;;5038450;28;20215;-25
2023/07/13 08:47:23;;;;;;;8.52;2.70;;;22.30;98.50;;;;;;5029328;28;20295;-25
2023/07/13 08:49:59;;;;;;;7.90;2.15;;;22.30;98.50;;;;;;5031100;28;20212;-25
2023/07/13 08:52:37;;;;;;;7.68;2.42;;;22.40;98.50;;;;;;5034574;28;20236;-25
2023/07/13 08:55:15;;;;;;;6.00;2.47;;;22.40;98.50;;;;;;5027190;28;20220;-25
2023/07/13 08:57:49;;;;;;;8.23;2.38;;;22.40;98.50;;;;;;5024380;28;20214;-25
2023/07/13 09:00:17;;;;;;;7.47;2.70;;;22.40;98.30;;;;;;5027171;28;20224;-25
2023/07/13 09:02:53;;;;;;;7.15;2.50;;;22.50;98.40;;;;;;5033205;28;20302;-25
2023/07/13 09:05:38;;;;;;;5.97;2.22;;;22.50;98.50;;;;;;5038021;28;20212;-25
2023/07/13 09:08:14;;;;;;;6.43;2.72;;;22.60;98.60;;;;;;5026817;28;20197;-25
2023/07/13 09:10:47;;;;;;;4.80;2.13;;;22.60;98.40;;;;;;5025894;28;20745;-25
2023/07/13 09:13:40;;;;;;;6.60;2.20;;;22.60;98.40;;;;;;5038735;28;20550;-25
2023/07/13 09:16:09;;;;;;;7.85;2.28;;;22.70;98.20;;;;;;5025091;28;20209;-25
2023/07/13 09:18:49;;;;;;;8.50;2.22;;;22.60;98.20;;;;;;5029377;28;20222;-25
2023/07/13 09:21:28;;;;;;;6.93;2.40;;;22.60;97.90;;;;;;5028806;28;20287;-31
2023/07/13 09:24:13;;;;;;;9.48;2.22;;;22.60;97.90;;;;;;5031583;28;20263;-31
2023/07/13 09:26:43;;;;;;;6.25;2.15;;;22.50;97.90;;;;;;5031329;28;20205;-31
2023/07/13 09:29:26;;;;;;;8.98;2.22;;;22.50;98.00;;;;;;5028232;28;20220;-31
2023/07/13 09:32:01;;;;;;;5.28;1.92;;;22.60;98.00;;;;;;5029259;28;20267;-31
2023/07/13 09:34:30;;;;;;;4.88;1.77;;;22.60;98.00;;;;;;5028009;28;20211;-31
2023/07/13 09:36:57;;;;;;;3.60;1.65;;;22.60;98.10;;;;;;5026594;28;20599;-32
2023/07/13 09:39:31;;;;;;;4.60;1.83;;;22.60;97.90;;;;;;5026285;28;20228;-32
2023/07/13 09:42:07;;;;;;;4.70;1.80;;;22.60;97.90;;;;;;5026225;28;20232;-31
2023/07/13 09:44:43;;;;;;;5.38;2.13;;;22.60;97.90;;;;;;5023835;28;20564;-32
2023/07/13 09:47:26;;;;;;;5.65;2.33;;;22.60;97.90;;;;;;5024259;28;20263;-32
2023/07/13 09:50:00;;;;;;;6.97;2.35;;;22.70;97.90;;;;;;5042937;28;20212;-32
2023/07/13 09:53:01;;;;;;;5.35;2.20;;;22.70;98.00;;;;;;5049970;28;20191;-31
2023/07/13 09:55:28;;;;;;;6.18;2.00;;;22.70;98.00;;;;;;5040505;28;20363;-32
2023/07/13 09:57:56;;;;;;;6.07;2.10;;;22.70;98.10;;;;;;5031571;28;20211;-32
2023/07/13 10:00:31;;;;;;;5.85;2.10;;;22.80;98.10;;;;;;5047486;28;20215;-31
2023/07/13 10:03:03;;;;;;;5.53;2.20;;;22.90;98.00;;;;;;5049417;28;20346;-31
2023/07/13 10:05:47;;;;;;;4.47;1.80;;;22.90;97.90;;;;;;5046030;28;20216;-31
2023/07/13 10:08:30;;;;;;;6.53;1.83;;;23.00;98.00;;;;;;5044019;28;20296;-31
2023/07/13 10:11:09;;;;;;;5.78;2.20;;;23.00;98.00;;;;;;5029324;28;20649;-31
2023/07/13 10:13:42;;;;;;;5.03;2.00;;;23.00;98.20;;;;;;5028608;28;20224;-31
2023/07/13 10:16:10;;;;;;;5.63;1.70;;;23.00;98.00;;;;;;5041415;28;20258;-31
2023/07/13 10:18:43;;;;;;;4.32;1.70;;;23.00;98.00;;;;;;5047136;28;20226;-31
2023/07/13 10:21:15;;;;;;;4.20;1.80;;;23.10;98.00;;;;;;5033855;28;20569;-31
2023/07/13 10:23:51;;;;;;;4.72;2.00;;;23.20;98.00;;;;;;5033363;28;20208;-32
2023/07/13 10:26:29;;;;;;;3.67;1.73;;;23.10;97.80;;;;;;5027471;28;20200;-32
2023/07/13 10:29:01;;;;;;;4.32;2.03;;;23.20;98.30;;;;;;5038330;28;20207;-32
2023/07/13 10:31:34;;;;;;;4.07;1.80;;;23.20;97.90;;;;;;5036475;28;20239;-32
2023/07/13 10:34:05;;;;;;;5.78;1.95;;;23.30;98.00;;;;;;5037601;28;20201;-31
2023/07/13 10:36:47;;;;;;;6.03;1.70;;;23.30;97.80;;;;;;5035715;28;20214;-31
2023/07/13 10:39:22;;;;;;;6.63;1.77;;;23.30;97.70;;;;;;5049860;28;20259;-31
2023/07/13 10:42:03;;;;;;;5.90;2.13;;;23.30;97.70;;;;;;5032905;28;20309;-32
2023/07/13 10:44:33;;;;;;;5.85;1.98;;;23.30;97.80;;;;;;5044591;28;20569;-31
2023/07/13 10:47:19;;;;;;;6.35;2.10;;;23.30;98.10;;;;;;5043396;28;20626;-31
2023/07/13 10:49:50;;;;;;;6.95;1.90;;;23.40;97.90;;;;;;5029827;28;20271;-32
2023/07/13 10:52:46;;;;;;;4.82;1.90;;;23.40;97.90;;;;;;5041117;28;20238;-32
2023/07/13 10:55:40;;;;;;;3.90;1.60;;;23.50;97.90;;;;;;5046876;28;20208;-31
2023/07/13 10:58:18;;;;;;;6.47;1.80;;;23.60;97.60;;;;;;5047200;28;20663;-32
2023/07/13 11:01:19;;;;;;;3.35;1.65;;;23.60;97.70;;;;;;5039120;28;20594;-31
2023/07/13 11:03:50;;;;;;;5.28;1.63;;;23.70;97.70;;;;;;5027955;28;20208;-32
2023/07/13 11:06:29;;;;;;;5.35;1.50;;;23.70;97.60;;;;;;5029943;28;20710;-32
2023/07/13 11:09:17;;;;;;;4.07;1.55;;;23.80;97.50;;;;;;5026840;28;20200;-31
2023/07/13 11:11:50;;;;;;;3.42;1.58;;;23.90;97.60;;;;;;5038634;28;20208;-31
2023/07/13 11:14:52;;;;;;;8.65;1.98;;;23.90;97.50;;;;;;5049349;28;20216;-31
2023/07/13 11:17:33;;;;;;;4.03;1.33;;;24.00;97.50;;;;;;5048607;28;21023;-31
2023/07/13 11:20:14;;;;;;;3.47;1.58;;;24.10;97.60;;;;;;5047516;28;20255;-25
2023/07/13 11:23:13;;;;;;;5.22;1.83;;;24.10;97.70;;;;;;5042319;28;20232;-25
2023/07/13 11:25:40;;;;;;;5.03;1.75;;;24.20;97.50;;;;;;5027637;28;20204;-25
2023/07/13 11:28:10;;;;;;;5.22;1.38;;;24.20;97.10;;;;;;5045169;28;20266;-25
2023/07/13 11:31:02;;;;;;;6.38;1.85;;;24.20;97.00;;;;;;5028553;28;20307;-25
2023/07/13 11:33:38;;;;;;;5.82;2.03;;;24.20;96.70;;;;;;5028050;28;20205;-25
2023/07/13 11:36:21;;;;;;;5.03;1.67;;;24.10;97.00;;;;;;5028725;28;20247;-25
2023/07/13 11:39:03;;;;;;;4.35;1.48;;;24.10;97.00;;;;;;5026959;28;20661;-25
2023/07/13 11:41:43;;;;;;;7.18;1.85;;;24.10;97.10;;;;;;5037376;28;20274;-25
2023/07/13 11:44:19;;;;;;;4.57;1.83;;;24.10;97.10;;;;;;5037464;28;20201;-25
2023/07/13 11:46:53;;;;;;;3.95;1.65;;;24.20;96.90;;;;;;5028148;28;20296;-25
2023/07/13 11:49:29;;;;;;;4.38;1.67;;;24.20;97.00;;;;;;5033024;28;20223;-25
2023/07/13 11:52:03;;;;;;;5.22;1.80;;;24.30;97.10;;;;;;5028164;28;20214;-26
2023/07/13 11:54:43;;;;;;;4.40;1.30;;;24.30;96.90;;;;;;5027654;28;20193;-25
2023/07/13 11:57:27;;;;;;;3.78;1.40;;;24.30;96.80;;;;;;5035506;28;20273;-25
2023/07/13 11:59:55;;;;;;;6.50;1.65;;;24.40;96.40;;;;;;5045770;28;20250;-25
2023/07/13 12:02:32;;;;;;;3.20;1.20;;;24.40;96.30;;;;;;5035128;28;20266;-25
2023/07/13 12:05:05;;;;;;;3.38;1.25;;;24.30;96.30;;;;;;5037819;28;20185;-25
2023/07/13 12:07:38;;;;;;;5.47;1.52;;;24.30;96.30;;;;;;5032946;28;20212;-25
2023/07/13 12:10:17;;;;;;;4.40;1.30;;;24.30;95.90;;;;;;5043131;28;20700;-25
2023/07/13 12:13:00;;;;;;;3.70;1.40;;;24.30;96.10;;;;;;5036949;28;20212;-25
2023/07/13 12:15:46;;;;;;;7.15;1.65;;;24.30;96.10;;;;;;5027423;28;20627;-25
2023/07/13 12:18:19;;;;;;;4.15;1.33;;;24.40;96.20;;;;;;5036168;28;20220;-25
2023/07/13 12:20:52;;;;;;;4.82;1.40;;;24.30;96.20;;;;;;5029523;28;20200;-26
2023/07/13 12:23:24;;;;;;;3.35;1.30;;;24.30;96.00;;;;;;5034065;28;20223;-25
2023/07/13 12:25:56;;;;;;;3.75;1.40;;;24.30;96.00;;;;;;5044733;28;20196;-25
2023/07/13 12:28:46;;;;;;;11.68;1.70;;;24.30;96.10;;;;;;5044938;28;20197;-25
2023/07/13 12:31:32;;;;;;;2.92;1.23;;;24.30;95.60;;;;;;5031079;28;20232;-25
2023/07/13 12:34:11;;;;;;;4.97;1.50;;;24.30;95.90;;;;;;5028927;28;20208;-25
2023/07/13 12:36:46;;;;;;;5.78;1.25;;;24.20;95.90;;;;;;5029600;28;20209;-25
2023/07/13 12:39:23;;;;;;;13.60;1.70;;;24.30;95.80;;;;;;5044890;28;20713;-25
2023/07/13 12:41:52;;;;;;;3.80;1.40;;;24.30;95.80;;;;;;5043756;28;20227;-25
2023/07/13 12:44:29;;;;;;;3.08;1.58;;;24.30;96.10;;;;;;5035839;28;20221;-25
2023/07/13 12:47:04;;;;;;;2.42;1.40;;;24.30;96.00;;;;;;5025410;28;20221;-25
2023/07/13 12:49:36;;;;;;;2.60;1.40;;;24.30;96.00;;;;;;5036905;28;20212;-25
2023/07/13 12:52:14;;;;;;;5.10;1.63;;;24.30;96.00;;;;;;5038448;28;21096;-25
2023/07/13 12:54:41;;;;;;;3.42;1.50;;;24.30;95.90;;;;;;5037361;28;20600;-25
2023/07/13 12:57:24;;;;;;;3.58;1.48;;;24.10;96.10;;;;;;5028219;28;20224;-25
2023/07/13 12:59:54;;;;;;;3.67;1.60;;;24.10;96.20;;;;;;5026133;28;20232;-25
2023/07/13 13:02:32;;;;;;;4.30;1.45;;;24.00;96.30;;;;;;5025005;28;20237;-25
2023/07/13 13:05:05;;;;;;;3.15;1.50;;;23.90;96.30;;;;;;5025664;28;20205;-25
2023/07/13 13:07:37;;;;;;;3.13;1.48;;;23.80;96.20;;;;;;5026183;28;20205;-25
2023/07/13 13:10:12;;;;;;;2.80;1.27;;;23.80;96.20;;;;;;5039249;28;20208;-25